Terminal Aerodrome Forecast
Issued by NWS

Home | Current Version | Previous Version | Text Only | Print | Product List | Glossary On
Versions: 1 2 3 4 5 6 7 8 9 10 11 12 13 14 15 16 17 18 19 20 21 22 23 24 25
000
FTUS46 KMTR 181723
TAFSFO
TAF
KSFO 181723Z 1818/1924 27005KT P6SM SCT006
     FM182100 30015G22KT P6SM FEW012 FEW200
     FM190500 27010KT P6SM BKN015 BKN200
     FM191200 26005KT P6SM BKN008 BKN200
     FM191830 25006KT P6SM FEW010 OVC050
     FM192100 27010KT P6SM FEW010 OVC050=

USA.gov is the U.S. government's official web portal to all federal, state and local government web resources and services.